sensor_id;sensor_type;location;lat;lon;timestamp;temperature;humidity
19561;DHT22;9927;47.792;10.616;2022-09-09T03:01:08;15.00;99.90
19561;DHT22;9927;47.792;10.616;2022-09-09T03:03:36;15.00;99.90
19561;DHT22;9927;47.792;10.616;2022-09-09T03:06:03;15.00;99.90
19561;DHT22;9927;47.792;10.616;2022-09-09T03:08:32;15.00;99.90
19561;DHT22;9927;47.792;10.616;2022-09-09T03:11:00;15.00;99.90
19561;DHT22;9927;47.792;10.616;2022-09-09T03:13:29;15.00;99.90
19561;DHT22;9927;47.792;10.616;2022-09-09T03:15:57;15.00;99.90
19561;DHT22;9927;47.792;10.616;2022-09-09T03:18:24;15.00;99.90
19561;DHT22;9927;47.792;10.616;2022-09-09T03:20:52;15.10;99.90
19561;DHT22;9927;47.792;10.616;2022-09-09T03:23:20;15.00;99.90
19561;DHT22;9927;47.792;10.616;2022-09-09T03:25:51;15.00;99.90
19561;DHT22;9927;47.792;10.616;2022-09-09T03:28:19;15.00;99.90
19561;DHT22;9927;47.792;10.616;2022-09-09T03:30:47;15.00;99.90
19561;DHT22;9927;47.792;10.616;2022-09-09T03:33:15;14.90;99.90
19561;DHT22;9927;47.792;10.616;2022-09-09T03:35:46;14.80;99.90
19561;DHT22;9927;47.792;10.616;2022-09-09T03:38:15;14.80;99.90
19561;DHT22;9927;47.792;10.616;2022-09-09T03:40:53;14.80;99.90
19561;DHT22;9927;47.792;10.616;2022-09-09T03:43:23;14.70;99.90
19561;DHT22;9927;47.792;10.616;2022-09-09T03:45:50;14.70;99.90
19561;DHT22;9927;47.792;10.616;2022-09-09T03:48:19;14.70;99.90
19561;DHT22;9927;47.792;10.616;2022-09-09T03:50:46;14.70;99.90
19561;DHT22;9927;47.792;10.616;2022-09-09T03:53:15;14.70;99.90
19561;DHT22;9927;47.792;10.616;2022-09-09T03:55:50;14.60;99.90
19561;DHT22;9927;47.792;10.616;2022-09-09T03:58:19;14.50;99.90
19561;DHT22;9927;47.792;10.616;2022-09-09T04:00:54;14.40;99.90
19561;DHT22;9927;47.792;10.616;2022-09-09T04:03:22;14.40;99.90
19561;DHT22;9927;47.792;10.616;2022-09-09T04:05:55;14.40;99.90
19561;DHT22;9927;47.792;10.616;2022-09-09T04:08:23;14.40;99.90
19561;DHT22;9927;47.792;10.616;2022-09-09T04:10:53;14.40;99.90
19561;DHT22;9927;47.792;10.616;2022-09-09T04:13:20;14.40;99.90
19561;DHT22;9927;47.792;10.616;2022-09-09T04:15:55;14.40;99.90
19561;DHT22;9927;47.792;10.616;2022-09-09T04:18:23;14.40;99.90
19561;DHT22;9927;47.792;10.616;2022-09-09T04:20:51;14.30;99.90
19561;DHT22;9927;47.792;10.616;2022-09-09T04:23:19;14.30;99.90
19561;DHT22;9927;47.792;10.616;2022-09-09T04:25:52;14.30;99.90
19561;DHT22;9927;47.792;10.616;2022-09-09T04:28:21;14.20;99.90
19561;DHT22;9927;47.792;10.616;2022-09-09T04:30:50;14.30;99.90
19561;DHT22;9927;47.792;10.616;2022-09-09T04:33:17;14.30;99.90
19561;DHT22;9927;47.792;10.616;2022-09-09T04:35:49;14.40;99.90
19561;DHT22;9927;47.792;10.616;2022-09-09T04:38:17;14.40;99.90
19561;DHT22;9927;47.792;10.616;2022-09-09T04:40:49;14.50;99.90
19561;DHT22;9927;47.792;10.616;2022-09-09T04:43:16;14.50;99.90
19561;DHT22;9927;47.792;10.616;2022-09-09T04:45:48;14.50;99.90
19561;DHT22;9927;47.792;10.616;2022-09-09T04:48:15;14.60;99.90
19561;DHT22;9927;47.792;10.616;2022-09-09T04:50:43;14.60;99.90
19561;DHT22;9927;47.792;10.616;2022-09-09T04:53:10;14.60;99.90
19561;DHT22;9927;47.792;10.616;2022-09-09T04:55:37;14.60;99.90
19561;DHT22;9927;47.792;10.616;2022-09-09T04:58:06;14.70;99.90
19561;DHT22;9927;47.792;10.616;2022-09-09T05:00:35;14.70;99.90
19561;DHT22;9927;47.792;10.616;2022-09-09T05:03:04;14.70;99.90
19561;DHT22;9927;47.792;10.616;2022-09-09T05:05:33;14.70;99.90
19561;DHT22;9927;47.792;10.616;2022-09-09T05:08:07;14.80;99.90
19561;DHT22;9927;47.792;10.616;2022-09-09T05:10:37;14.80;99.90
19561;DHT22;9927;47.792;10.616;2022-09-09T05:13:05;14.90;99.90
19561;DHT22;9927;47.792;10.616;2022-09-09T05:15:33;14.90;99.90
19561;DHT22;9927;47.792;10.616;2022-09-09T05:18:01;14.80;99.90
19561;DHT22;9927;47.792;10.616;2022-09-09T05:20:29;14.80;99.90
19561;DHT22;9927;47.792;10.616;2022-09-09T05:22:56;14.80;99.90
19561;DHT22;9927;47.792;10.616;2022-09-09T05:25:24;14.90;99.90
19561;DHT22;9927;47.792;10.616;2022-09-09T05:27:53;14.90;99.90
19561;DHT22;9927;47.792;10.616;2022-09-09T05:30:21;14.90;99.90
19561;DHT22;9927;47.792;10.616;2022-09-09T05:32:50;15.00;99.90
19561;DHT22;9927;47.792;10.616;2022-09-09T05:35:17;15.00;99.90
19561;DHT22;9927;47.792;10.616;2022-09-09T05:37:46;15.00;99.90
19561;DHT22;9927;47.792;10.616;2022-09-09T05:40:13;15.00;99.90
19561;DHT22;9927;47.792;10.616;2022-09-09T05:42:41;15.00;99.90
19561;DHT22;9927;47.792;10.616;2022-09-09T05:45:08;15.10;99.90
19561;DHT22;9927;47.792;10.616;2022-09-09T05:47:36;15.20;99.90
19561;DHT22;9927;47.792;10.616;2022-09-09T05:50:04;15.20;99.90
19561;DHT22;9927;47.792;10.616;2022-09-09T05:52:31;15.30;99.90
19561;DHT22;9927;47.792;10.616;2022-09-09T05:54:59;15.30;99.90
19561;DHT22;9927;47.792;10.616;2022-09-09T05:57:26;15.40;99.90
19561;DHT22;9927;47.792;10.616;2022-09-09T05:59:53;15.40;99.90
19561;DHT22;9927;47.792;10.616;2022-09-09T06:02:21;15.40;99.90
19561;DHT22;9927;47.792;10.616;2022-09-09T06:04:48;15.50;99.90
19561;DHT22;9927;47.792;10.616;2022-09-09T06:07:15;15.60;99.90
19561;DHT22;9927;47.792;10.616;2022-09-09T06:09:43;15.60;99.90
19561;DHT22;9927;47.792;10.616;2022-09-09T06:12:10;15.70;99.90
19561;DHT22;9927;47.792;10.616;2022-09-09T06:14:37;15.70;99.90
19561;DHT22;9927;47.792;10.616;2022-09-09T06:17:10;15.80;99.90
19561;DHT22;9927;47.792;10.616;2022-09-09T06:19:37;15.80;99.90
19561;DHT22;9927;47.792;10.616;2022-09-09T06:22:04;15.80;99.90
19561;DHT22;9927;47.792;10.616;2022-09-09T06:24:32;15.90;99.90
19561;DHT22;9927;47.792;10.616;2022-09-09T06:26:59;16.10;99.90
19561;DHT22;9927;47.792;10.616;2022-09-09T06:29:27;16.20;99.90
19561;DHT22;9927;47.792;10.616;2022-09-09T06:31:54;16.30;99.90
19561;DHT22;9927;47.792;10.616;2022-09-09T06:34:21;16.40;99.90
19561;DHT22;9927;47.792;10.616;2022-09-09T06:36:48;16.50;99.90
19561;DHT22;9927;47.792;10.616;2022-09-09T06:39:16;16.60;99.90
19561;DHT22;9927;47.792;10.616;2022-09-09T06:41:43;16.70;99.90
19561;DHT22;9927;47.792;10.616;2022-09-09T06:44:10;16.70;99.90
19561;DHT22;9927;47.792;10.616;2022-09-09T06:46:39;16.70;99.90
19561;DHT22;9927;47.792;10.616;2022-09-09T06:49:08;16.70;99.90
19561;DHT22;9927;47.792;10.616;2022-09-09T06:51:37;16.80;99.90
19561;DHT22;9927;47.792;10.616;2022-09-09T06:54:11;16.70;99.90
19561;DHT22;9927;47.792;10.616;2022-09-09T06:56:40;16.90;99.90
19561;DHT22;9927;47.792;10.616;2022-09-09T06:59:09;17.10;99.90
19561;DHT22;9927;47.792;10.616;2022-09-09T07:01:38;17.20;99.90
19561;DHT22;9927;47.792;10.616;2022-09-09T07:04:08;17.20;99.90
19561;DHT22;9927;47.792;10.616;2022-09-09T07:06:39;17.30;99.90
19561;DHT22;9927;47.792;10.616;2022-09-09T07:09:11;17.30;99.90
19561;DHT22;9927;47.792;10.616;2022-09-09T07:11:41;17.30;99.90
19561;DHT22;9927;47.792;10.616;2022-09-09T07:14:08;17.40;99.90
19561;DHT22;9927;47.792;10.616;2022-09-09T07:16:37;17.40;99.90
19561;DHT22;9927;47.792;10.616;2022-09-09T07:19:05;17.50;99.90
19561;DHT22;9927;47.792;10.616;2022-09-09T07:21:33;17.60;99.90
19561;DHT22;9927;47.792;10.616;2022-09-09T07:24:01;17.60;99.90
19561;DHT22;9927;47.792;10.616;2022-09-09T07:26:30;17.60;99.90
19561;DHT22;9927;47.792;10.616;2022-09-09T07:28:58;17.80;99.90
19561;DHT22;9927;47.792;10.616;2022-09-09T07:31:27;17.80;99.90
19561;DHT22;9927;47.792;10.616;2022-09-09T07:33:57;17.90;99.90
19561;DHT22;9927;47.792;10.616;2022-09-09T07:36:27;18.00;99.90
19561;DHT22;9927;47.792;10.616;2022-09-09T07:39:02;17.90;99.90
19561;DHT22;9927;47.792;10.616;2022-09-09T07:41:37;17.90;99.90
19561;DHT22;9927;47.792;10.616;2022-09-09T07:44:06;18.00;99.90
19561;DHT22;9927;47.792;10.616;2022-09-09T07:46:34;18.00;99.90
19561;DHT22;9927;47.792;10.616;2022-09-09T07:49:02;18.20;99.90
19561;DHT22;9927;47.792;10.616;2022-09-09T07:51:33;18.40;99.90
19561;DHT22;9927;47.792;10.616;2022-09-09T07:54:06;18.40;99.90
19561;DHT22;9927;47.792;10.616;2022-09-09T07:56:33;18.50;99.90
19561;DHT22;9927;47.792;10.616;2022-09-09T07:59:01;18.60;99.90
19561;DHT22;9927;47.792;10.616;2022-09-09T08:01:30;18.60;99.90
19561;DHT22;9927;47.792;10.616;2022-09-09T08:04:03;18.80;99.90
19561;DHT22;9927;47.792;10.616;2022-09-09T08:06:34;18.90;99.90
19561;DHT22;9927;47.792;10.616;2022-09-09T08:09:02;18.90;99.90
19561;DHT22;9927;47.792;10.616;2022-09-09T08:11:30;19.00;99.90
19561;DHT22;9927;47.792;10.616;2022-09-09T08:14:06;18.80;99.90
19561;DHT22;9927;47.792;10.616;2022-09-09T08:16:37;18.70;99.90
19561;DHT22;9927;47.792;10.616;2022-09-09T08:19:05;18.80;99.90
19561;DHT22;9927;47.792;10.616;2022-09-09T08:21:36;18.80;99.90
19561;DHT22;9927;47.792;10.616;2022-09-09T08:24:05;19.00;99.90
19561;DHT22;9927;47.792;10.616;2022-09-09T08:26:35;19.00;99.90
19561;DHT22;9927;47.792;10.616;2022-09-09T08:29:04;18.90;99.90
19561;DHT22;9927;47.792;10.616;2022-09-09T08:31:34;18.80;99.90
19561;DHT22;9927;47.792;10.616;2022-09-09T08:34:02;18.80;99.90
19561;DHT22;9927;47.792;10.616;2022-09-09T08:36:33;18.80;99.90
19561;DHT22;9927;47.792;10.616;2022-09-09T08:39:01;18.80;99.90
19561;DHT22;9927;47.792;10.616;2022-09-09T08:50:36;19.10;99.90
19561;DHT22;9927;47.792;10.616;2022-09-09T08:58:20;18.90;99.90
19561;DHT22;9927;47.792;10.616;2022-09-09T09:01:02;18.80;99.90
19561;DHT22;9927;47.792;10.616;2022-09-09T09:11:45;18.40;99.90
19561;DHT22;9927;47.792;10.616;2022-09-09T09:14:18;18.30;99.90
19561;DHT22;9927;47.792;10.616;2022-09-09T09:17:06;18.40;99.90
19561;DHT22;9927;47.792;10.616;2022-09-09T09:19:39;18.40;99.90
19561;DHT22;9927;47.792;10.616;2022-09-09T09:24:54;18.40;99.90
19561;DHT22;9927;47.792;10.616;2022-09-09T09:27:34;18.50;99.90
19561;DHT22;9927;47.792;10.616;2022-09-09T09:30:17;18.40;99.90
19561;DHT22;9927;47.792;10.616;2022-09-09T09:32:56;18.50;99.90
19561;DHT22;9927;47.792;10.616;2022-09-09T09:35:25;18.60;99.90
19561;DHT22;9927;47.792;10.616;2022-09-09T09:37:52;18.60;99.90
19561;DHT22;9927;47.792;10.616;2022-09-09T09:40:51;18.60;99.90
19561;DHT22;9927;47.792;10.616;2022-09-09T09:43:27;18.50;99.90
19561;DHT22;9927;47.792;10.616;2022-09-09T09:45:55;18.70;99.90
19561;DHT22;9927;47.792;10.616;2022-09-09T09:48:43;18.90;99.90
19561;DHT22;9927;47.792;10.616;2022-09-09T09:51:14;19.00;99.90
19561;DHT22;9927;47.792;10.616;2022-09-09T09:53:43;19.10;99.90
19561;DHT22;9927;47.792;10.616;2022-09-09T09:56:12;18.90;99.90
19561;DHT22;9927;47.792;10.616;2022-09-09T10:01:27;19.00;99.90
19561;DHT22;9927;47.792;10.616;2022-09-09T10:04:20;18.80;99.90
19561;DHT22;9927;47.792;10.616;2022-09-09T10:06:50;18.60;99.90
19561;DHT22;9927;47.792;10.616;2022-09-09T10:17:26;18.00;99.90
19561;DHT22;9927;47.792;10.616;2022-09-09T10:20:29;17.90;99.90
19561;DHT22;9927;47.792;10.616;2022-09-09T10:26:34;17.90;99.90
19561;DHT22;9927;47.792;10.616;2022-09-09T10:37:16;18.50;99.90
19561;DHT22;9927;47.792;10.616;2022-09-09T10:40:02;18.30;99.90
19561;DHT22;9927;47.792;10.616;2022-09-09T10:42:32;18.40;99.90
19561;DHT22;9927;47.792;10.616;2022-09-09T10:45:07;18.40;99.90
19561;DHT22;9927;47.792;10.616;2022-09-09T10:48:09;18.50;99.90
19561;DHT22;9927;47.792;10.616;2022-09-09T10:56:13;18.80;99.90
19561;DHT22;9927;47.792;10.616;2022-09-09T11:06:41;19.40;99.90
19561;DHT22;9927;47.792;10.616;2022-09-09T11:09:16;19.60;99.90
19561;DHT22;9927;47.792;10.616;2022-09-09T11:11:54;19.70;99.90
19561;DHT22;9927;47.792;10.616;2022-09-09T11:14:43;19.70;99.90
19561;DHT22;9927;47.792;10.616;2022-09-09T11:17:19;19.50;99.90
19561;DHT22;9927;47.792;10.616;2022-09-09T11:19:47;19.40;99.90
19561;DHT22;9927;47.792;10.616;2022-09-09T11:22:34;19.40;99.90
19561;DHT22;9927;47.792;10.616;2022-09-09T11:25:15;19.30;99.90
19561;DHT22;9927;47.792;10.616;2022-09-09T11:30:28;19.30;99.90
19561;DHT22;9927;47.792;10.616;2022-09-09T11:33:34;19.20;99.90
19561;DHT22;9927;47.792;10.616;2022-09-09T11:38:55;19.40;99.90
19561;DHT22;9927;47.792;10.616;2022-09-09T11:41:34;19.40;99.90
19561;DHT22;9927;47.792;10.616;2022-09-09T11:44:12;19.40;99.90
19561;DHT22;9927;47.792;10.616;2022-09-09T11:46:45;19.40;99.90
19561;DHT22;9927;47.792;10.616;2022-09-09T11:49:39;19.50;99.90
19561;DHT22;9927;47.792;10.616;2022-09-09T11:53:03;19.60;99.90
19561;DHT22;9927;47.792;10.616;2022-09-09T11:55:26;19.70;99.90
19561;DHT22;9927;47.792;10.616;2022-09-09T11:58:04;19.70;99.90
19561;DHT22;9927;47.792;10.616;2022-09-09T12:03:02;20.10;99.90
19561;DHT22;9927;47.792;10.616;2022-09-09T12:05:39;20.50;99.90
19561;DHT22;9927;47.792;10.616;2022-09-09T12:08:10;20.60;99.90
19561;DHT22;9927;47.792;10.616;2022-09-09T12:10:39;20.60;99.90
19561;DHT22;9927;47.792;10.616;2022-09-09T12:13:22;20.70;99.90
19561;DHT22;9927;47.792;10.616;2022-09-09T12:15:55;21.00;99.90
19561;DHT22;9927;47.792;10.616;2022-09-09T12:18:34;21.20;99.90
19561;DHT22;9927;47.792;10.616;2022-09-09T12:21:13;21.20;99.90
19561;DHT22;9927;47.792;10.616;2022-09-09T12:23:57;21.10;99.90
19561;DHT22;9927;47.792;10.616;2022-09-09T12:26:31;21.20;99.90
19561;DHT22;9927;47.792;10.616;2022-09-09T12:31:48;20.90;99.90
19561;DHT22;9927;47.792;10.616;2022-09-09T12:37:13;21.10;99.90
19561;DHT22;9927;47.792;10.616;2022-09-09T12:39:57;21.20;99.90
19561;DHT22;9927;47.792;10.616;2022-09-09T12:42:26;21.30;99.90
19561;DHT22;9927;47.792;10.616;2022-09-09T12:45:02;21.60;99.90
19561;DHT22;9927;47.792;10.616;2022-09-09T12:47:42;21.80;99.90
19561;DHT22;9927;47.792;10.616;2022-09-09T12:50:21;21.60;99.90
19561;DHT22;9927;47.792;10.616;2022-09-09T12:52:51;21.50;99.90
19561;DHT22;9927;47.792;10.616;2022-09-09T12:55:23;21.40;99.90
19561;DHT22;9927;47.792;10.616;2022-09-09T12:57:52;21.50;99.90
19561;DHT22;9927;47.792;10.616;2022-09-09T13:00:21;21.50;99.90
19561;DHT22;9927;47.792;10.616;2022-09-09T13:03:14;21.50;99.90
19561;DHT22;9927;47.792;10.616;2022-09-09T13:05:43;21.70;99.90
19561;DHT22;9927;47.792;10.616;2022-09-09T13:08:11;21.80;99.90
19561;DHT22;9927;47.792;10.616;2022-09-09T13:10:46;21.60;99.90
19561;DHT22;9927;47.792;10.616;2022-09-09T13:13:27;21.50;99.90
19561;DHT22;9927;47.792;10.616;2022-09-09T13:15:58;21.30;99.90
19561;DHT22;9927;47.792;10.616;2022-09-09T13:18:30;21.20;99.90
19561;DHT22;9927;47.792;10.616;2022-09-09T13:20:58;21.20;99.90
19561;DHT22;9927;47.792;10.616;2022-09-09T13:23:36;21.10;99.90
19561;DHT22;9927;47.792;10.616;2022-09-09T13:26:25;21.10;99.90
19561;DHT22;9927;47.792;10.616;2022-09-09T13:28:54;21.10;99.90
19561;DHT22;9927;47.792;10.616;2022-09-09T13:31:29;21.10;99.90
19561;DHT22;9927;47.792;10.616;2022-09-09T13:33:56;21.30;99.90
19561;DHT22;9927;47.792;10.616;2022-09-09T13:36:32;21.20;99.90
19561;DHT22;9927;47.792;10.616;2022-09-09T13:39:02;21.30;99.90
19561;DHT22;9927;47.792;10.616;2022-09-09T13:41:33;21.40;99.90
19561;DHT22;9927;47.792;10.616;2022-09-09T13:44:03;21.50;99.90
19561;DHT22;9927;47.792;10.616;2022-09-09T13:46:38;21.50;99.90
19561;DHT22;9927;47.792;10.616;2022-09-09T13:51:37;20.80;99.90
19561;DHT22;9927;47.792;10.616;2022-09-09T13:54:05;20.80;99.90
19561;DHT22;9927;47.792;10.616;2022-09-09T13:56:37;20.80;99.90
19561;DHT22;9927;47.792;10.616;2022-09-09T13:59:11;20.90;99.90
19561;DHT22;9927;47.792;10.616;2022-09-09T14:01:38;21.10;99.90
19561;DHT22;9927;47.792;10.616;2022-09-09T14:04:06;21.20;99.90
19561;DHT22;9927;47.792;10.616;2022-09-09T14:06:34;21.10;99.90
19561;DHT22;9927;47.792;10.616;2022-09-09T14:09:05;20.90;99.90
19561;DHT22;9927;47.792;10.616;2022-09-09T14:11:33;20.80;99.90
19561;DHT22;9927;47.792;10.616;2022-09-09T14:14:00;20.70;99.90
19561;DHT22;9927;47.792;10.616;2022-09-09T14:16:28;20.40;99.90
19561;DHT22;9927;47.792;10.616;2022-09-09T14:18:55;20.40;99.90
19561;DHT22;9927;47.792;10.616;2022-09-09T14:21:27;20.50;99.90
19561;DHT22;9927;47.792;10.616;2022-09-09T14:23:54;20.50;99.90
19561;DHT22;9927;47.792;10.616;2022-09-09T14:26:21;20.60;99.90
19561;DHT22;9927;47.792;10.616;2022-09-09T14:28:49;20.80;99.90
19561;DHT22;9927;47.792;10.616;2022-09-09T14:31:22;21.00;99.90
19561;DHT22;9927;47.792;10.616;2022-09-09T14:33:50;21.20;99.90
19561;DHT22;9927;47.792;10.616;2022-09-09T14:36:18;21.40;99.90
19561;DHT22;9927;47.792;10.616;2022-09-09T14:38:45;21.50;99.90
19561;DHT22;9927;47.792;10.616;2022-09-09T14:41:15;21.50;99.90
19561;DHT22;9927;47.792;10.616;2022-09-09T14:43:44;21.40;99.90
19561;DHT22;9927;47.792;10.616;2022-09-09T14:46:15;21.40;99.90
19561;DHT22;9927;47.792;10.616;2022-09-09T14:48:42;21.50;99.90
19561;DHT22;9927;47.792;10.616;2022-09-09T14:51:13;21.60;99.90
19561;DHT22;9927;47.792;10.616;2022-09-09T14:53:43;21.50;99.90
19561;DHT22;9927;47.792;10.616;2022-09-09T14:56:14;21.40;99.90
19561;DHT22;9927;47.792;10.616;2022-09-09T14:58:41;21.20;99.90
19561;DHT22;9927;47.792;10.616;2022-09-09T15:01:13;21.30;99.90
19561;DHT22;9927;47.792;10.616;2022-09-09T15:03:42;21.40;99.90
19561;DHT22;9927;47.792;10.616;2022-09-09T15:06:12;21.10;99.90
19561;DHT22;9927;47.792;10.616;2022-09-09T15:08:42;20.90;99.90
19561;DHT22;9927;47.792;10.616;2022-09-09T15:11:11;20.80;99.90
19561;DHT22;9927;47.792;10.616;2022-09-09T15:13:40;20.70;99.90
19561;DHT22;9927;47.792;10.616;2022-09-09T15:16:15;20.80;99.90
19561;DHT22;9927;47.792;10.616;2022-09-09T15:18:44;21.00;99.90
19561;DHT22;9927;47.792;10.616;2022-09-09T15:21:13;21.20;99.90
19561;DHT22;9927;47.792;10.616;2022-09-09T15:23:41;21.20;99.90
19561;DHT22;9927;47.792;10.616;2022-09-09T15:26:09;21.20;99.90
19561;DHT22;9927;47.792;10.616;2022-09-09T15:28:38;21.30;99.90
19561;DHT22;9927;47.792;10.616;2022-09-09T15:33:41;21.50;99.90
19561;DHT22;9927;47.792;10.616;2022-09-09T15:36:21;21.60;99.90
19561;DHT22;9927;47.792;10.616;2022-09-09T15:38:49;21.30;99.90
19561;DHT22;9927;47.792;10.616;2022-09-09T15:41:18;21.30;99.90
19561;DHT22;9927;47.792;10.616;2022-09-09T15:43:51;21.20;99.90
19561;DHT22;9927;47.792;10.616;2022-09-09T15:49:03;20.90;99.90
19561;DHT22;9927;47.792;10.616;2022-09-09T15:51:30;21.00;99.90
19561;DHT22;9927;47.792;10.616;2022-09-09T15:54:18;21.00;99.90
19561;DHT22;9927;47.792;10.616;2022-09-09T15:56:54;20.90;99.90
19561;DHT22;9927;47.792;10.616;2022-09-09T15:59:24;20.80;99.90
19561;DHT22;9927;47.792;10.616;2022-09-09T16:01:51;20.60;99.90
19561;DHT22;9927;47.792;10.616;2022-09-09T16:04:19;20.50;99.90
19561;DHT22;9927;47.792;10.616;2022-09-09T16:06:55;20.50;99.90
19561;DHT22;9927;47.792;10.616;2022-09-09T16:09:22;20.50;99.90
19561;DHT22;9927;47.792;10.616;2022-09-09T16:11:50;20.30;99.90
19561;DHT22;9927;47.792;10.616;2022-09-09T16:14:17;20.00;99.90
19561;DHT22;9927;47.792;10.616;2022-09-09T16:16:45;20.00;99.90
19561;DHT22;9927;47.792;10.616;2022-09-09T16:19:12;20.00;99.90
19561;DHT22;9927;47.792;10.616;2022-09-09T16:21:42;19.90;99.90
19561;DHT22;9927;47.792;10.616;2022-09-09T16:24:12;20.00;99.90
19561;DHT22;9927;47.792;10.616;2022-09-09T16:26:42;20.00;99.90
19561;DHT22;9927;47.792;10.616;2022-09-09T16:29:12;19.90;99.90
19561;DHT22;9927;47.792;10.616;2022-09-09T16:31:41;19.80;99.90
19561;DHT22;9927;47.792;10.616;2022-09-09T16:34:09;19.80;99.90
19561;DHT22;9927;47.792;10.616;2022-09-09T16:36:37;19.60;99.90
19561;DHT22;9927;47.792;10.616;2022-09-09T16:39:11;19.50;99.90
19561;DHT22;9927;47.792;10.616;2022-09-09T16:41:39;19.50;99.90
19561;DHT22;9927;47.792;10.616;2022-09-09T16:44:09;19.50;99.90
19561;DHT22;9927;47.792;10.616;2022-09-09T16:46:39;19.50;99.90
19561;DHT22;9927;47.792;10.616;2022-09-09T16:49:09;19.40;99.90
19561;DHT22;9927;47.792;10.616;2022-09-09T16:51:39;19.30;99.90
19561;DHT22;9927;47.792;10.616;2022-09-09T16:54:08;19.30;99.90
19561;DHT22;9927;47.792;10.616;2022-09-09T16:56:38;19.20;99.90
19561;DHT22;9927;47.792;10.616;2022-09-09T16:59:10;19.10;99.90
19561;DHT22;9927;47.792;10.616;2022-09-09T17:01:39;19.00;99.90
19561;DHT22;9927;47.792;10.616;2022-09-09T17:04:25;18.90;99.90
19561;DHT22;9927;47.792;10.616;2022-09-09T17:06:54;18.90;99.90
19561;DHT22;9927;47.792;10.616;2022-09-09T17:09:22;18.70;99.90
19561;DHT22;9927;47.792;10.616;2022-09-09T17:11:50;18.50;99.90
19561;DHT22;9927;47.792;10.616;2022-09-09T17:14:20;18.40;99.90
19561;DHT22;9927;47.792;10.616;2022-09-09T17:16:47;18.40;99.90
19561;DHT22;9927;47.792;10.616;2022-09-09T17:19:15;18.40;99.90
19561;DHT22;9927;47.792;10.616;2022-09-09T17:21:42;18.30;99.90
19561;DHT22;9927;47.792;10.616;2022-09-09T17:24:29;18.20;99.90
19561;DHT22;9927;47.792;10.616;2022-09-09T17:26:57;18.10;99.90
19561;DHT22;9927;47.792;10.616;2022-09-09T17:29:25;18.00;99.90
19561;DHT22;9927;47.792;10.616;2022-09-09T17:31:52;17.90;99.90
19561;DHT22;9927;47.792;10.616;2022-09-09T17:34:20;17.90;99.90
19561;DHT22;9927;47.792;10.616;2022-09-09T17:36:47;17.80;99.90
19561;DHT22;9927;47.792;10.616;2022-09-09T17:39:15;17.70;99.90
19561;DHT22;9927;47.792;10.616;2022-09-09T17:41:42;17.60;99.90
19561;DHT22;9927;47.792;10.616;2022-09-09T17:44:09;17.50;99.90
19561;DHT22;9927;47.792;10.616;2022-09-09T17:46:39;17.50;99.90
19561;DHT22;9927;47.792;10.616;2022-09-09T17:49:12;17.40;99.90
19561;DHT22;9927;47.792;10.616;2022-09-09T17:51:40;17.40;99.90
19561;DHT22;9927;47.792;10.616;2022-09-09T17:54:14;17.30;99.90
19561;DHT22;9927;47.792;10.616;2022-09-09T17:56:42;17.30;99.90
19561;DHT22;9927;47.792;10.616;2022-09-09T17:59:13;17.30;99.90
19561;DHT22;9927;47.792;10.616;2022-09-09T18:01:43;17.20;99.90
19561;DHT22;9927;47.792;10.616;2022-09-09T18:04:15;17.10;99.90
19561;DHT22;9927;47.792;10.616;2022-09-09T18:06:44;17.00;99.90
19561;DHT22;9927;47.792;10.616;2022-09-09T18:09:21;17.00;99.90
19561;DHT22;9927;47.792;10.616;2022-09-09T18:11:52;16.90;99.90
19561;DHT22;9927;47.792;10.616;2022-09-09T18:14:30;16.80;99.90
19561;DHT22;9927;47.792;10.616;2022-09-09T18:16:58;16.80;99.90
19561;DHT22;9927;47.792;10.616;2022-09-09T18:19:27;16.70;99.90
19561;DHT22;9927;47.792;10.616;2022-09-09T18:21:57;16.70;99.90
19561;DHT22;9927;47.792;10.616;2022-09-09T18:24:29;16.60;99.90
19561;DHT22;9927;47.792;10.616;2022-09-09T18:26:56;16.60;99.90
19561;DHT22;9927;47.792;10.616;2022-09-09T18:29:24;16.50;99.90
19561;DHT22;9927;47.792;10.616;2022-09-09T18:31:52;16.50;99.90
19561;DHT22;9927;47.792;10.616;2022-09-09T18:34:22;16.50;99.90
19561;DHT22;9927;47.792;10.616;2022-09-09T18:36:52;16.40;99.90
19561;DHT22;9927;47.792;10.616;2022-09-09T18:39:23;16.20;99.90
19561;DHT22;9927;47.792;10.616;2022-09-09T18:41:54;16.10;99.90
19561;DHT22;9927;47.792;10.616;2022-09-09T18:44:23;15.90;99.90
19561;DHT22;9927;47.792;10.616;2022-09-09T18:46:52;15.80;99.90
19561;DHT22;9927;47.792;10.616;2022-09-09T18:49:23;15.80;99.90
19561;DHT22;9927;47.792;10.616;2022-09-09T18:51:51;15.70;99.90
19561;DHT22;9927;47.792;10.616;2022-09-09T18:54:24;15.70;99.90
19561;DHT22;9927;47.792;10.616;2022-09-09T18:56:52;15.60;99.90
19561;DHT22;9927;47.792;10.616;2022-09-09T18:59:21;15.70;99.90
19561;DHT22;9927;47.792;10.616;2022-09-09T19:01:51;15.70;99.90
19561;DHT22;9927;47.792;10.616;2022-09-09T19:04:21;15.70;99.90
19561;DHT22;9927;47.792;10.616;2022-09-09T19:06:49;15.70;99.90
19561;DHT22;9927;47.792;10.616;2022-09-09T19:09:17;15.70;99.90
19561;DHT22;9927;47.792;10.616;2022-09-09T19:11:45;15.70;99.90
19561;DHT22;9927;47.792;10.616;2022-09-09T19:14:15;15.60;99.90
19561;DHT22;9927;47.792;10.616;2022-09-09T19:16:43;15.60;99.90
19561;DHT22;9927;47.792;10.616;2022-09-09T19:19:31;15.60;99.90
19561;DHT22;9927;47.792;10.616;2022-09-09T19:21:59;15.60;99.90
19561;DHT22;9927;47.792;10.616;2022-09-09T19:24:30;15.60;99.90
19561;DHT22;9927;47.792;10.616;2022-09-09T19:27:00;15.60;99.90
19561;DHT22;9927;47.792;10.616;2022-09-09T19:29:30;15.50;99.90
19561;DHT22;9927;47.792;10.616;2022-09-09T19:31:59;15.50;99.90
19561;DHT22;9927;47.792;10.616;2022-09-09T19:34:47;15.30;99.90
19561;DHT22;9927;47.792;10.616;2022-09-09T19:37:14;15.20;99.90
19561;DHT22;9927;47.792;10.616;2022-09-09T19:39:45;15.10;99.90
19561;DHT22;9927;47.792;10.616;2022-09-09T19:42:13;15.10;99.90
19561;DHT22;9927;47.792;10.616;2022-09-09T19:44:40;15.00;99.90
19561;DHT22;9927;47.792;10.616;2022-09-09T19:47:07;15.10;99.90
19561;DHT22;9927;47.792;10.616;2022-09-09T19:49:35;15.10;99.90
19561;DHT22;9927;47.792;10.616;2022-09-09T19:52:03;15.10;99.90
19561;DHT22;9927;47.792;10.616;2022-09-09T19:54:30;15.10;99.90
19561;DHT22;9927;47.792;10.616;2022-09-09T19:56:58;15.10;99.90
19561;DHT22;9927;47.792;10.616;2022-09-09T19:59:27;15.20;99.90
19561;DHT22;9927;47.792;10.616;2022-09-09T20:01:55;15.30;99.90
19561;DHT22;9927;47.792;10.616;2022-09-09T20:04:23;15.40;99.90
19561;DHT22;9927;47.792;10.616;2022-09-09T20:06:50;15.10;99.90
19561;DHT22;9927;47.792;10.616;2022-09-09T20:09:20;14.70;99.90
19561;DHT22;9927;47.792;10.616;2022-09-09T20:11:48;14.20;99.90
19561;DHT22;9927;47.792;10.616;2022-09-09T20:14:16;13.80;99.90
19561;DHT22;9927;47.792;10.616;2022-09-09T20:16:44;13.60;99.90